Time;durP1;ratioP1;P1;durP2;ratioP2;P2;SDS_P1;SDS_P2;PMS_P1;PMS_P2;Temp;Humidity;BMP_temperature;BMP_pressure;BME280_temperature;BME280_humidity;BME280_pressure;Samples;Min_cycle;Max_cycle;Signal;HPM_P1;HPM_P2
2022/11/29 00:01:06;;;;;;;25.23;19.03;;;6.80;1.00;;;;;;5009537;28;20481;-64
2022/11/29 00:03:33;;;;;;;25.93;18.90;;;6.80;1.00;;;;;;5011030;28;20822;-64
2022/11/29 00:06:10;;;;;;;23.63;19.00;;;6.90;1.00;;;;;;5011393;28;20403;-64
2022/11/29 00:08:36;;;;;;;22.33;17.67;;;6.90;1.00;;;;;;5009225;28;20441;-64
2022/11/29 00:11:07;;;;;;;23.10;18.20;;;6.80;1.00;;;;;;5010048;28;20487;-63
2022/11/29 00:13:33;;;;;;;23.40;18.30;;;6.80;1.00;;;;;;5008777;28;20427;-64
2022/11/29 00:16:16;;;;;;;21.93;19.10;;;6.70;1.00;;;;;;5010932;28;20911;-64
2022/11/29 00:18:42;;;;;;;25.80;20.23;;;6.60;1.00;;;;;;5010926;28;20282;-63
2022/11/29 00:21:08;;;;;;;23.03;19.67;;;6.50;1.00;;;;;;5010263;28;20955;-64
2022/11/29 00:23:34;;;;;;;24.83;19.87;;;6.60;1.00;;;;;;5009381;28;20614;-64
2022/11/29 00:26:06;;;;;;;21.67;17.37;;;6.70;1.00;;;;;;5010351;28;20419;-61
2022/11/29 00:28:32;;;;;;;24.77;19.07;;;6.90;1.00;;;;;;5010487;28;20439;-63
2022/11/29 00:30:58;;;;;;;25.50;19.27;;;6.90;1.00;;;;;;5009732;28;20442;-64
2022/11/29 00:33:24;;;;;;;24.80;20.40;;;6.90;1.00;;;;;;5010568;28;20431;-64
2022/11/29 00:35:49;;;;;;;22.23;18.47;;;7.00;1.00;;;;;;5009526;28;20180;-62
2022/11/29 00:38:15;;;;;;;27.50;19.63;;;6.90;1.00;;;;;;5010312;28;20218;-62
2022/11/29 00:40:41;;;;;;;22.43;18.67;;;6.90;1.00;;;;;;5010339;28;20286;-62
2022/11/29 00:43:06;;;;;;;24.10;19.27;;;6.90;1.00;;;;;;5011197;28;20191;-62
2022/11/29 00:45:32;;;;;;;27.13;20.90;;;6.90;1.00;;;;;;5012254;28;20176;-63
2022/11/29 00:47:58;;;;;;;24.50;19.20;;;6.90;1.00;;;;;;5013734;28;20212;-64
2022/11/29 00:50:23;;;;;;;27.03;18.53;;;6.90;1.00;;;;;;5015651;28;20291;-65
2022/11/29 00:52:49;;;;;;;22.93;18.80;;;6.90;1.00;;;;;;5011161;28;20168;-64
2022/11/29 00:55:15;;;;;;;23.53;18.80;;;6.90;1.00;;;;;;5012929;28;20169;-64
2022/11/29 00:57:41;;;;;;;25.90;19.63;;;6.90;1.00;;;;;;5014256;28;20180;-64
2022/11/29 01:00:07;;;;;;;25.17;18.80;;;6.90;1.00;;;;;;5012056;28;20180;-65
2022/11/29 01:02:33;;;;;;;39.53;22.63;;;7.00;1.00;;;;;;5011809;28;20172;-65
2022/11/29 01:04:58;;;;;;;30.20;20.40;;;6.90;1.00;;;;;;5012225;28;20411;-64
2022/11/29 01:07:24;;;;;;;24.87;19.60;;;7.00;1.00;;;;;;5010159;28;20192;-64
2022/11/29 01:09:50;;;;;;;24.80;18.00;;;7.00;1.00;;;;;;5009864;28;20266;-64
2022/11/29 01:12:15;;;;;;;22.00;17.97;;;7.00;1.00;;;;;;5008398;28;20199;-65
2022/11/29 01:14:42;;;;;;;22.97;18.13;;;6.90;1.00;;;;;;5009376;28;20255;-64
2022/11/29 01:17:07;;;;;;;23.97;19.07;;;7.00;1.00;;;;;;5010085;28;20198;-65
2022/11/29 01:19:33;;;;;;;20.87;17.87;;;7.00;1.00;;;;;;5009903;28;20411;-64
2022/11/29 01:21:59;;;;;;;24.63;19.37;;;6.90;1.00;;;;;;5009030;28;20172;-64
2022/11/29 01:24:25;;;;;;;34.90;18.77;;;6.90;1.00;;;;;;5008323;28;20203;-64
2022/11/29 01:26:50;;;;;;;31.63;19.60;;;6.80;1.00;;;;;;5010129;28;20227;-65
2022/11/29 01:29:16;;;;;;;26.50;18.47;;;6.90;1.00;;;;;;5009821;28;20621;-64
2022/11/29 01:31:42;;;;;;;24.77;18.70;;;6.90;1.00;;;;;;5008284;28;20209;-65
2022/11/29 01:34:09;;;;;;;28.10;18.23;;;6.90;1.00;;;;;;5008884;28;20204;-65
2022/11/29 01:36:35;;;;;;;25.77;21.53;;;6.90;1.00;;;;;;5009361;28;20242;-65
2022/11/29 01:39:02;;;;;;;22.63;18.63;;;6.90;1.00;;;;;;5009213;28;20407;-65
2022/11/29 01:41:30;;;;;;;32.53;18.50;;;6.90;1.00;;;;;;5007038;28;20506;-65
2022/11/29 01:44:06;;;;;;;25.07;19.90;;;6.90;1.00;;;;;;5009085;28;20427;-65
2022/11/29 01:46:39;;;;;;;22.23;18.43;;;6.80;1.00;;;;;;5009896;28;20819;-65
2022/11/29 01:49:34;;;;;;;32.43;18.97;;;6.80;1.00;;;;;;5009986;28;20497;-65
2022/11/29 01:52:02;;;;;;;25.07;18.63;;;6.90;1.00;;;;;;5004714;28;20471;-65
2022/11/29 01:54:30;;;;;;;28.87;19.97;;;6.90;1.00;;;;;;5008987;28;20399;-65
2022/11/29 01:56:57;;;;;;;25.10;18.87;;;6.90;1.00;;;;;;5006853;28;20446;-65
2022/11/29 01:59:27;;;;;;;26.80;19.17;;;7.00;1.00;;;;;;5009439;28;20408;-65
2022/11/29 02:01:59;;;;;;;22.70;17.13;;;6.90;1.00;;;;;;5008549;28;20481;-65
2022/11/29 02:04:25;;;;;;;22.90;19.57;;;6.90;1.00;;;;;;5009403;28;20593;-65
2022/11/29 02:06:50;;;;;;;22.40;19.73;;;6.90;1.00;;;;;;5008185;28;21341;-65
2022/11/29 02:09:22;;;;;;;24.87;19.33;;;6.90;1.00;;;;;;5008602;28;20222;-65
2022/11/29 02:12:09;;;;;;;20.80;18.23;;;6.90;1.00;;;;;;5007578;28;20626;-65
2022/11/29 02:14:43;;;;;;;26.67;19.83;;;6.90;1.00;;;;;;5009058;28;20407;-65
2022/11/29 02:17:46;;;;;;;23.90;18.20;;;6.90;1.00;;;;;;5009181;28;20420;-65
2022/11/29 02:20:40;;;;;;;25.93;17.83;;;6.90;1.00;;;;;;4991649;28;20442;-65
2022/11/29 02:23:08;;;;;;;25.20;17.27;;;6.90;1.00;;;;;;5010739;28;20427;-65
2022/11/29 02:26:20;;;;;;;22.13;17.00;;;6.90;1.00;;;;;;5012909;28;20446;-66
2022/11/29 02:29:23;;;;;;;22.33;17.90;;;6.90;1.00;;;;;;4984444;28;20872;-65
2022/11/29 02:31:52;;;;;;;20.20;16.57;;;6.90;1.00;;;;;;5011326;28;20508;-65
2022/11/29 02:34:42;;;;;;;22.80;17.53;;;6.90;1.00;;;;;;5012728;28;20613;-65
2022/11/29 02:37:44;;;;;;;20.90;16.53;;;6.90;1.00;;;;;;5012714;28;20415;-65
2022/11/29 02:40:19;;;;;;;30.10;16.37;;;6.90;1.00;;;;;;5011764;28;20409;-65
2022/11/29 02:43:06;;;;;;;33.10;17.10;;;6.90;1.00;;;;;;5010843;28;20403;-65
2022/11/29 02:45:58;;;;;;;24.17;16.80;;;6.90;1.00;;;;;;5007381;28;20740;-65
2022/11/29 02:48:29;;;;;;;22.83;17.43;;;6.90;1.00;;;;;;4992861;28;20459;-65
2022/11/29 02:51:27;;;;;;;22.10;17.50;;;6.90;1.00;;;;;;5010927;28;20465;-65
2022/11/29 02:54:25;;;;;;;20.50;16.90;;;6.90;1.00;;;;;;5011916;28;20407;-65
2022/11/29 02:57:19;;;;;;;26.67;16.80;;;7.00;1.00;;;;;;5012637;28;20431;-65
2022/11/29 02:59:57;;;;;;;23.70;16.27;;;6.90;1.00;;;;;;5011687;28;20446;-65
2022/11/29 03:02:47;;;;;;;25.43;17.80;;;6.90;1.00;;;;;;5003371;28;20466;-65
2022/11/29 03:05:31;;;;;;;25.83;17.53;;;7.00;1.00;;;;;;5004597;28;20422;-65
2022/11/29 03:08:24;;;;;;;21.87;15.87;;;7.00;1.00;;;;;;5011538;28;20788;-66
2022/11/29 03:11:01;;;;;;;22.37;18.13;;;6.90;1.00;;;;;;5011203;28;20458;-64
2022/11/29 03:13:33;;;;;;;21.23;16.40;;;6.90;1.00;;;;;;5010404;28;20423;-64
2022/11/29 03:16:26;;;;;;;19.23;17.03;;;7.00;1.00;;;;;;5011972;28;20462;-64
2022/11/29 03:18:55;;;;;;;27.27;18.67;;;6.90;1.00;;;;;;5011825;28;20759;-64
2022/11/29 03:21:54;;;;;;;26.90;17.77;;;6.90;1.00;;;;;;5010977;28;20528;-64
2022/11/29 03:24:27;;;;;;;21.13;16.73;;;7.00;1.00;;;;;;5011327;28;20495;-64
2022/11/29 03:27:05;;;;;;;25.70;17.73;;;6.90;1.00;;;;;;5010734;28;20443;-64
2022/11/29 03:29:41;;;;;;;23.30;16.77;;;7.00;1.00;;;;;;5011058;28;20539;-64
2022/11/29 03:32:14;;;;;;;22.73;16.17;;;6.90;1.00;;;;;;5010874;28;20490;-64
2022/11/29 03:34:58;;;;;;;24.10;17.87;;;6.90;1.00;;;;;;5010019;28;20794;-64
2022/11/29 03:37:26;;;;;;;26.57;17.47;;;6.90;1.00;;;;;;5008263;28;20928;-64
2022/11/29 03:40:01;;;;;;;20.00;17.70;;;6.90;1.00;;;;;;5011023;28;20916;-65
2022/11/29 03:42:52;;;;;;;24.40;17.03;;;6.90;1.00;;;;;;5011210;28;20430;-65
2022/11/29 03:45:27;;;;;;;23.13;16.97;;;7.00;1.00;;;;;;5006452;28;20497;-65
2022/11/29 03:48:02;;;;;;;19.27;16.70;;;7.00;1.00;;;;;;5011471;28;20494;-65
2022/11/29 03:50:55;;;;;;;20.50;17.03;;;7.00;1.00;;;;;;5011017;28;20450;-65
2022/11/29 03:53:56;;;;;;;29.87;17.20;;;7.00;1.00;;;;;;4997983;28;20431;-65
2022/11/29 03:56:28;;;;;;;22.17;16.23;;;7.00;1.00;;;;;;4991334;28;20415;-65
2022/11/29 03:59:11;;;;;;;21.07;15.87;;;7.00;1.00;;;;;;4991627;28;20404;-64
2022/11/29 04:02:14;;;;;;;21.30;16.90;;;7.00;1.00;;;;;;5006976;28;20423;-65
2022/11/29 04:04:57;;;;;;;20.87;16.33;;;7.10;1.00;;;;;;5011172;28;20431;-64
2022/11/29 04:08:00;;;;;;;20.80;17.33;;;7.10;1.00;;;;;;5011133;28;20419;-65
2022/11/29 04:10:38;;;;;;;20.40;16.37;;;7.10;1.00;;;;;;5009783;28;20626;-64
2022/11/29 04:13:22;;;;;;;20.83;16.50;;;7.10;1.00;;;;;;5010790;28;20445;-66
2022/11/29 04:16:09;;;;;;;18.63;16.03;;;7.20;1.00;;;;;;5011057;28;20411;-64
2022/11/29 04:18:35;;;;;;;21.17;17.77;;;7.10;1.00;;;;;;5010865;28;20402;-64
2022/11/29 04:21:19;;;;;;;20.20;16.73;;;7.10;1.00;;;;;;5010514;28;20415;-64
2022/11/29 04:24:23;;;;;;;20.30;15.90;;;7.10;1.00;;;;;;5009380;28;20220;-65
2022/11/29 04:26:51;;;;;;;35.03;15.80;;;7.20;1.00;;;;;;4968877;28;20780;-64
2022/11/29 04:29:38;;;;;;;29.43;17.27;;;7.20;1.00;;;;;;4969052;28;20453;-64
2022/11/29 04:32:07;;;;;;;24.03;15.20;;;7.10;1.00;;;;;;4981954;28;20412;-65
2022/11/29 04:34:51;;;;;;;21.87;15.63;;;7.10;1.00;;;;;;4998804;28;20963;-64
2022/11/29 04:37:31;;;;;;;21.40;14.90;;;7.10;1.00;;;;;;5003290;28;20460;-64
2022/11/29 04:40:06;;;;;;;21.90;16.03;;;7.10;1.00;;;;;;5010210;28;20510;-64
2022/11/29 04:42:34;;;;;;;18.23;14.97;;;7.20;1.00;;;;;;5009203;28;20876;-64
2022/11/29 04:45:03;;;;;;;21.73;16.37;;;7.20;1.00;;;;;;5010746;28;20407;-64
2022/11/29 04:47:38;;;;;;;22.10;16.77;;;7.20;1.00;;;;;;5010046;28;20462;-64
2022/11/29 04:50:06;;;;;;;29.80;17.70;;;7.20;1.00;;;;;;5010580;28;21251;-64
2022/11/29 04:53:00;;;;;;;18.50;15.30;;;7.20;1.00;;;;;;5009914;28;20403;-64
2022/11/29 04:55:37;;;;;;;24.93;15.97;;;7.20;1.00;;;;;;5009773;28;20430;-64
2022/11/29 04:58:30;;;;;;;17.37;14.83;;;7.20;1.00;;;;;;5009975;28;20431;-65
2022/11/29 05:01:03;;;;;;;23.50;15.20;;;7.30;1.00;;;;;;5008720;28;20490;-64
2022/11/29 05:03:46;;;;;;;23.53;16.10;;;7.30;1.00;;;;;;5010035;28;20502;-64
2022/11/29 05:06:42;;;;;;;17.20;15.00;;;7.30;1.00;;;;;;5010569;28;20426;-64
2022/11/29 05:09:48;;;;;;;18.53;13.70;;;7.30;1.00;;;;;;5009353;28;20461;-64
2022/11/29 05:12:37;;;;;;;26.00;15.27;;;7.30;1.00;;;;;;5002370;28;20503;-65
2022/11/29 05:15:25;;;;;;;17.73;14.13;;;7.20;1.00;;;;;;5010058;28;20451;-64
2022/11/29 05:18:15;;;;;;;32.80;16.47;;;7.20;1.00;;;;;;5010223;28;20478;-64
2022/11/29 05:20:56;;;;;;;22.60;15.83;;;7.30;1.00;;;;;;5009897;28;20486;-64
2022/11/29 05:23:59;;;;;;;18.13;14.43;;;7.30;1.00;;;;;;5004201;28;20427;-64
2022/11/29 05:26:29;;;;;;;19.53;14.57;;;7.30;1.00;;;;;;4990261;28;20443;-64
2022/11/29 05:29:11;;;;;;;22.70;14.90;;;7.30;1.00;;;;;;4990109;28;20847;-64
2022/11/29 05:31:56;;;;;;;24.43;14.63;;;7.40;1.00;;;;;;4989837;28;20400;-64
2022/11/29 05:34:33;;;;;;;18.30;14.73;;;7.40;1.00;;;;;;4999132;28;20850;-64
2022/11/29 05:37:14;;;;;;;18.20;14.83;;;7.40;1.00;;;;;;5009580;28;20481;-62
2022/11/29 05:39:55;;;;;;;20.77;14.13;;;7.40;1.00;;;;;;5005667;28;20729;-64
2022/11/29 05:42:41;;;;;;;20.77;16.23;;;7.40;1.00;;;;;;5004649;28;20458;-65
2022/11/29 05:45:29;;;;;;;20.50;15.73;;;7.40;1.00;;;;;;4990299;28;20404;-65
2022/11/29 05:48:11;;;;;;;24.83;15.53;;;7.40;1.00;;;;;;5006237;28;20455;-64
2022/11/29 05:50:40;;;;;;;31.50;15.93;;;7.40;1.00;;;;;;5006756;28;20967;-65
2022/11/29 05:53:30;;;;;;;21.97;13.83;;;7.40;1.00;;;;;;5008604;28;20403;-65
2022/11/29 05:56:07;;;;;;;19.13;15.30;;;7.40;1.00;;;;;;5013170;28;20498;-65
2022/11/29 05:58:55;;;;;;;20.43;16.00;;;7.40;1.00;;;;;;5011950;28;20500;-65
2022/11/29 06:01:48;;;;;;;23.10;15.00;;;7.30;1.00;;;;;;4999913;28;20603;-65
2022/11/29 06:04:28;;;;;;;20.83;15.30;;;7.30;1.00;;;;;;4977056;28;20431;-65
2022/11/29 06:07:07;;;;;;;29.13;15.80;;;7.40;1.00;;;;;;5012355;28;20533;-66
2022/11/29 06:09:41;;;;;;;27.73;15.70;;;7.40;1.00;;;;;;5012396;28;20454;-66
2022/11/29 06:12:14;;;;;;;19.10;14.57;;;7.40;1.00;;;;;;5012746;28;20900;-66
2022/11/29 06:15:17;;;;;;;18.63;15.37;;;7.40;1.00;;;;;;5012508;28;20434;-66
2022/11/29 06:18:05;;;;;;;21.90;16.57;;;7.40;1.00;;;;;;5008875;28;20434;-66
2022/11/29 06:21:00;;;;;;;25.80;15.47;;;7.40;1.00;;;;;;5009189;28;20526;-66
2022/11/29 06:23:46;;;;;;;19.90;15.40;;;7.40;1.00;;;;;;5010664;28;20434;-66
2022/11/29 06:26:47;;;;;;;18.50;14.47;;;7.50;1.00;;;;;;5012182;28;20453;-67
2022/11/29 06:29:17;;;;;;;28.83;14.90;;;7.50;1.00;;;;;;5004447;28;21028;-66
2022/11/29 06:31:47;;;;;;;29.27;15.70;;;7.50;1.00;;;;;;5006376;28;20462;-66
2022/11/29 06:34:20;;;;;;;23.33;14.97;;;7.50;1.00;;;;;;5002026;28;20415;-66
2022/11/29 06:36:52;;;;;;;30.80;16.90;;;7.50;1.00;;;;;;5012562;28;20423;-66
2022/11/29 06:39:18;;;;;;;41.97;18.07;;;7.50;1.00;;;;;;5007313;28;21269;-65
2022/11/29 06:41:44;;;;;;;22.87;15.57;;;7.50;1.00;;;;;;5011711;28;20424;-65
2022/11/29 06:44:10;;;;;;;19.43;14.73;;;7.50;1.00;;;;;;5011844;28;20172;-65
2022/11/29 06:46:54;;;;;;;18.13;15.10;;;7.40;1.00;;;;;;5013015;28;20206;-65
2022/11/29 06:49:47;;;;;;;27.77;16.10;;;7.40;1.00;;;;;;5011954;28;20940;-63
2022/11/29 06:52:32;;;;;;;75.30;20.90;;;7.40;1.00;;;;;;5008637;28;20423;-66
2022/11/29 06:55:18;;;;;;;30.50;15.93;;;7.40;1.00;;;;;;5008641;28;20442;-65
2022/11/29 06:58:04;;;;;;;36.07;15.30;;;7.50;1.00;;;;;;5002616;28;20458;-66
2022/11/29 07:00:49;;;;;;;43.87;16.80;;;7.50;1.00;;;;;;5010068;28;20427;-66
2022/11/29 07:03:35;;;;;;;35.03;17.27;;;7.60;1.00;;;;;;5003376;28;20419;-66
2022/11/29 07:06:14;;;;;;;45.57;17.47;;;7.50;1.00;;;;;;5005705;28;20439;-65
2022/11/29 07:08:41;;;;;;;40.03;14.93;;;7.60;1.00;;;;;;5008918;28;20415;-65
2022/11/29 07:11:10;;;;;;;44.27;14.80;;;7.50;1.00;;;;;;5008267;28;20516;-64
2022/11/29 07:13:36;;;;;;;25.13;14.30;;;7.50;1.00;;;;;;5006779;28;20494;-65
2022/11/29 07:16:25;;;;;;;32.00;15.10;;;7.50;1.00;;;;;;5002001;28;20503;-65
2022/11/29 07:19:12;;;;;;;25.40;14.17;;;7.50;1.00;;;;;;5009063;28;20431;-65
2022/11/29 07:22:10;;;;;;;32.70;17.57;;;7.60;1.00;;;;;;5008088;28;20407;-65
2022/11/29 07:24:51;;;;;;;21.27;14.33;;;7.70;1.00;;;;;;5002750;28;21275;-65
2022/11/29 07:27:38;;;;;;;30.00;15.67;;;7.70;1.00;;;;;;5004571;28;20974;-64
2022/11/29 07:30:33;;;;;;;48.33;17.67;;;7.70;1.00;;;;;;5006687;28;20466;-64
2022/11/29 07:33:32;;;;;;;26.00;15.03;;;7.70;1.00;;;;;;5006405;28;21596;-65
2022/11/29 07:36:17;;;;;;;40.63;18.77;;;7.70;1.00;;;;;;5003777;28;20459;-65
2022/11/29 07:39:14;;;;;;;28.73;15.10;;;7.70;1.00;;;;;;5003705;28;20983;-64
2022/11/29 07:42:01;;;;;;;43.87;17.20;;;7.70;1.00;;;;;;5004116;28;20502;-64
2022/11/29 07:45:11;;;;;;;31.03;16.00;;;7.70;1.00;;;;;;4990810;28;20435;-64
2022/11/29 07:47:37;;;;;;;17.43;12.57;;;7.80;1.00;;;;;;5004507;28;20467;-64
2022/11/29 07:50:03;;;;;;;18.47;14.60;;;7.80;1.00;;;;;;5005000;28;20544;-63
2022/11/29 07:52:29;;;;;;;18.40;13.97;;;7.70;1.00;;;;;;5005889;28;20171;-64
2022/11/29 07:54:55;;;;;;;70.73;20.60;;;7.80;1.00;;;;;;5009339;28;20407;-65
2022/11/29 07:57:21;;;;;;;138.37;26.70;;;7.80;1.00;;;;;;5010006;28;20192;-66
2022/11/29 07:59:47;;;;;;;65.60;17.67;;;7.80;1.00;;;;;;5010246;28;20180;-63
2022/11/29 08:02:12;;;;;;;43.10;16.53;;;7.80;1.00;;;;;;5002068;28;20758;-65
2022/11/29 08:04:44;;;;;;;30.27;15.07;;;7.90;1.00;;;;;;5010144;28;20172;-64
2022/11/29 08:07:10;;;;;;;25.17;14.43;;;7.90;1.00;;;;;;5008399;28;20192;-65
2022/11/29 08:09:36;;;;;;;21.27;15.10;;;7.90;1.00;;;;;;5009832;28;20511;-65
2022/11/29 08:12:01;;;;;;;21.63;15.40;;;7.90;1.00;;;;;;5009867;28;20175;-65
2022/11/29 08:14:31;;;;;;;23.47;13.20;;;7.90;1.00;;;;;;5010573;28;20204;-66
2022/11/29 08:16:57;;;;;;;21.47;12.77;;;7.90;1.00;;;;;;5002150;28;20674;-65
2022/11/29 08:19:22;;;;;;;78.80;19.93;;;7.90;1.00;;;;;;5011133;28;20477;-66
2022/11/29 08:21:49;;;;;;;29.13;15.10;;;8.00;1.00;;;;;;5013006;28;20184;-66
2022/11/29 08:24:15;;;;;;;25.33;12.93;;;8.00;1.00;;;;;;5014070;28;20186;-65
2022/11/29 08:26:41;;;;;;;23.37;14.03;;;8.00;1.00;;;;;;5007447;28;20443;-65
2022/11/29 08:29:07;;;;;;;20.53;12.40;;;8.00;1.00;;;;;;5014707;28;20204;-67
2022/11/29 08:31:32;;;;;;;19.00;12.80;;;8.00;1.00;;;;;;5010723;28;20171;-67
2022/11/29 08:33:58;;;;;;;18.57;13.00;;;8.00;1.00;;;;;;5011857;28;20171;-67
2022/11/29 08:36:24;;;;;;;17.43;12.37;;;8.00;1.00;;;;;;5011068;28;20515;-67
2022/11/29 08:38:49;;;;;;;19.00;13.63;;;8.10;1.00;;;;;;5010497;28;20173;-67
2022/11/29 08:41:16;;;;;;;28.47;14.00;;;8.10;1.00;;;;;;5008260;28;20181;-66
2022/11/29 08:43:42;;;;;;;33.63;13.80;;;8.10;1.00;;;;;;5009572;28;20169;-67
2022/11/29 08:46:08;;;;;;;107.93;22.27;;;8.10;1.00;;;;;;5008311;28;20435;-67
2022/11/29 08:48:35;;;;;;;119.37;22.70;;;8.20;1.00;;;;;;5010566;28;20783;-66
2022/11/29 08:51:02;;;;;;;121.23;26.00;;;8.20;1.00;;;;;;5008230;28;20204;-66
2022/11/29 08:53:40;;;;;;;125.47;23.57;;;8.20;1.00;;;;;;5006691;28;20423;-66
2022/11/29 08:56:17;;;;;;;108.67;20.83;;;8.20;1.00;;;;;;5009860;28;20439;-66
2022/11/29 08:58:44;;;;;;;69.70;19.50;;;8.20;1.00;;;;;;5009970;28;20475;-66
2022/11/29 09:01:17;;;;;;;46.50;15.77;;;8.30;1.00;;;;;;5004687;28;20435;-66
2022/11/29 09:04:01;;;;;;;19.00;12.70;;;8.20;1.00;;;;;;4989817;28;20412;-66
2022/11/29 09:06:30;;;;;;;23.00;13.60;;;8.20;1.00;;;;;;4990343;28;20427;-66
2022/11/29 09:08:58;;;;;;;18.87;12.67;;;8.30;1.00;;;;;;4989267;28;20932;-66
2022/11/29 09:11:26;;;;;;;34.60;12.60;;;8.30;1.00;;;;;;4999158;28;20896;-66
2022/11/29 09:13:55;;;;;;;27.80;14.13;;;8.30;1.00;;;;;;5001086;28;20759;-66
2022/11/29 09:16:24;;;;;;;22.00;12.30;;;8.30;1.00;;;;;;5009539;28;20853;-66
2022/11/29 09:18:51;;;;;;;22.87;13.37;;;8.30;1.00;;;;;;5008508;28;20835;-66
2022/11/29 09:21:17;;;;;;;67.47;18.63;;;8.30;1.00;;;;;;5004688;28;20423;-66
2022/11/29 09:23:44;;;;;;;60.83;16.57;;;8.30;1.00;;;;;;5008857;28;20414;-66
2022/11/29 09:26:15;;;;;;;36.70;12.43;;;8.30;1.00;;;;;;5009543;28;20407;-66
2022/11/29 09:28:41;;;;;;;40.20;12.67;;;8.30;1.00;;;;;;5003081;28;20893;-66
2022/11/29 09:31:10;;;;;;;60.43;16.87;;;8.40;1.00;;;;;;5005993;28;20481;-66
2022/11/29 09:33:36;;;;;;;28.10;12.80;;;8.40;1.00;;;;;;5008411;28;20168;-65
2022/11/29 09:36:02;;;;;;;26.50;12.40;;;8.40;1.00;;;;;;5009246;28;20911;-66
2022/11/29 09:38:28;;;;;;;24.87;12.70;;;8.40;1.00;;;;;;5008187;28;20287;-66
2022/11/29 09:40:56;;;;;;;17.87;12.73;;;8.40;1.00;;;;;;5008495;28;20966;-65
2022/11/29 09:43:59;;;;;;;15.47;11.90;;;8.50;1.00;;;;;;5008969;28;20439;-66
2022/11/29 09:46:49;;;;;;;21.73;14.47;;;8.50;1.00;;;;;;5008267;28;20438;-67
2022/11/29 09:49:29;;;;;;;17.53;12.67;;;8.50;1.00;;;;;;5006392;28;20463;-65
2022/11/29 09:52:09;;;;;;;14.27;10.90;;;8.50;1.00;;;;;;5000576;28;20773;-67
2022/11/29 09:54:50;;;;;;;29.83;12.50;;;8.50;1.00;;;;;;4997659;28;20413;-69
2022/11/29 09:57:18;;;;;;;25.10;13.27;;;8.50;1.00;;;;;;5001682;28;20481;-65
2022/11/29 09:59:50;;;;;;;22.27;14.20;;;8.50;1.00;;;;;;5007060;28;20442;-66
2022/11/29 10:02:18;;;;;;;44.67;15.20;;;8.50;1.00;;;;;;5004921;28;20439;-66
2022/11/29 10:05:00;;;;;;;83.90;20.27;;;8.50;1.00;;;;;;5008359;28;20529;-66
2022/11/29 10:07:34;;;;;;;79.87;16.57;;;8.60;1.00;;;;;;4989239;28;20440;-66
2022/11/29 10:10:14;;;;;;;70.00;16.97;;;8.60;1.00;;;;;;4988563;28;20459;-66
2022/11/29 10:12:59;;;;;;;57.57;15.07;;;8.60;1.00;;;;;;5002131;28;20557;-65
2022/11/29 10:15:33;;;;;;;36.47;12.77;;;8.70;1.00;;;;;;5005042;28;20419;-66
2022/11/29 10:18:03;;;;;;;61.63;17.47;;;8.70;1.00;;;;;;5008336;28;20428;-65
2022/11/29 10:20:33;;;;;;;41.73;16.00;;;8.80;1.00;;;;;;5008149;28;20422;-65
2022/11/29 10:22:59;;;;;;;24.73;11.97;;;8.80;1.00;;;;;;5007121;28;20999;-67
2022/11/29 10:25:45;;;;;;;17.47;12.10;;;8.80;1.00;;;;;;5008806;28;20450;-65
2022/11/29 10:28:17;;;;;;;30.67;11.97;;;8.80;1.00;;;;;;5008352;28;20284;-65
2022/11/29 10:30:44;;;;;;;52.67;14.43;;;8.80;1.00;;;;;;5008512;28;20463;-65
2022/11/29 10:33:21;;;;;;;48.63;13.80;;;8.90;1.00;;;;;;5007281;28;20736;-66
2022/11/29 10:35:49;;;;;;;27.40;12.63;;;8.90;1.00;;;;;;5009094;28;20454;-66
2022/11/29 10:38:15;;;;;;;58.23;15.43;;;8.90;1.00;;;;;;5007964;28;20431;-65
2022/11/29 10:40:46;;;;;;;39.13;14.20;;;8.90;1.00;;;;;;5003527;28;20435;-65
2022/11/29 10:43:12;;;;;;;56.57;18.77;;;8.90;1.00;;;;;;5003781;28;20176;-65
2022/11/29 10:45:49;;;;;;;62.40;17.13;;;8.90;1.00;;;;;;5009457;28;20431;-65
2022/11/29 10:48:30;;;;;;;35.97;14.33;;;9.00;1.00;;;;;;5002763;28;20427;-67
2022/11/29 10:50:56;;;;;;;34.23;14.77;;;8.90;1.00;;;;;;5010094;28;20462;-67
2022/11/29 10:53:29;;;;;;;52.37;16.10;;;9.00;1.00;;;;;;5011177;28;21281;-67
2022/11/29 10:56:04;;;;;;;44.37;14.13;;;9.00;1.00;;;;;;5012050;28;20419;-65
2022/11/29 10:58:31;;;;;;;54.30;14.70;;;9.00;1.00;;;;;;5011982;28;20403;-66
2022/11/29 11:01:07;;;;;;;38.37;12.70;;;9.10;1.00;;;;;;5009282;28;20514;-66
2022/11/29 11:03:37;;;;;;;21.17;11.83;;;9.10;1.00;;;;;;5011786;28;20407;-66
2022/11/29 11:06:05;;;;;;;26.10;11.50;;;9.10;1.00;;;;;;5011821;28;20431;-65
2022/11/29 11:08:33;;;;;;;24.30;11.83;;;9.10;1.00;;;;;;5010615;28;20519;-65
2022/11/29 11:10:59;;;;;;;9.27;6.73;;;9.10;1.00;;;;;;5009124;28;20463;-66
2022/11/29 11:13:28;;;;;;;7.67;6.87;;;9.10;1.00;;;;;;5009173;28;20602;-66
2022/11/29 11:16:18;;;;;;;12.00;6.70;;;9.10;1.00;;;;;;5010854;28;20810;-66
2022/11/29 11:18:46;;;;;;;10.20;6.87;;;9.20;1.00;;;;;;5005243;28;20450;-65
2022/11/29 11:21:20;;;;;;;8.00;6.87;;;9.20;1.00;;;;;;5002965;28;20598;-67
2022/11/29 11:23:55;;;;;;;9.00;5.90;;;9.30;1.00;;;;;;4991226;28;20918;-65
2022/11/29 11:26:22;;;;;;;14.40;6.97;;;9.30;1.00;;;;;;4991629;28;20427;-66
2022/11/29 11:28:58;;;;;;;8.00;5.40;;;9.30;1.00;;;;;;4991439;28;20470;-67
2022/11/29 11:31:34;;;;;;;7.37;4.77;;;9.30;1.00;;;;;;4993795;28;21093;-66
2022/11/29 11:34:30;;;;;;;7.40;6.10;;;9.20;1.00;;;;;;5010737;28;20402;-66
2022/11/29 11:37:14;;;;;;;8.57;5.40;;;9.20;1.00;;;;;;5011091;28;20441;-66
2022/11/29 11:39:45;;;;;;;5.97;5.37;;;9.20;1.00;;;;;;5010234;28;20391;-66
2022/11/29 11:45:08;;;;;;;65.90;12.83;;;9.30;1.00;;;;;;5007501;28;20872;-66
2022/11/29 11:47:36;;;;;;;21.03;8.00;;;9.20;1.00;;;;;;5009152;28;20462;-66
2022/11/29 11:50:02;;;;;;;29.87;6.97;;;9.20;1.00;;;;;;5009017;28;20960;-66
2022/11/29 11:52:47;;;;;;;7.30;5.67;;;9.30;1.00;;;;;;5009045;28;20421;-65
2022/11/29 11:55:24;;;;;;;20.77;6.37;;;9.20;1.00;;;;;;5006424;28;20264;-65
2022/11/29 11:58:04;;;;;;;10.17;5.40;;;9.20;1.00;;;;;;5004230;28;20423;-65
2022/11/29 12:00:53;;;;;;;9.20;5.90;;;9.20;1.00;;;;;;5009419;28;20415;-65
2022/11/29 12:03:46;;;;;;;16.30;6.70;;;9.40;1.00;;;;;;4990290;28;20463;-66
2022/11/29 12:06:33;;;;;;;21.67;7.47;;;9.40;1.00;;;;;;4990573;28;20486;-65
2022/11/29 12:09:07;;;;;;;12.17;5.93;;;9.40;1.00;;;;;;4989946;28;20924;-65
2022/11/29 12:12:00;;;;;;;59.80;11.23;;;9.40;1.00;;;;;;4989672;28;20968;-65
2022/11/29 12:15:05;;;;;;;11.40;6.33;;;9.50;1.00;;;;;;5003917;28;20412;-65
2022/11/29 12:17:54;;;;;;;67.20;12.40;;;9.40;1.00;;;;;;5004776;28;20918;-65
2022/11/29 12:20:49;;;;;;;31.20;7.23;;;9.40;1.00;;;;;;5009599;28;20415;-66
2022/11/29 12:23:18;;;;;;;10.37;4.63;;;9.40;1.00;;;;;;5009338;28;20407;-66
2022/11/29 12:26:09;;;;;;;99.27;15.97;;;9.40;1.00;;;;;;5009715;28;20399;-65
2022/11/29 12:28:39;;;;;;;14.60;6.17;;;9.40;1.00;;;;;;5010181;28;20415;-64
2022/11/29 12:31:42;;;;;;;5.07;3.90;;;9.30;1.00;;;;;;5009497;28;20994;-65
2022/11/29 12:34:32;;;;;;;9.90;6.37;;;9.20;1.00;;;;;;5009452;28;20402;-65
2022/11/29 12:37:10;;;;;;;17.47;6.33;;;9.20;1.00;;;;;;5007640;28;20464;-64
2022/11/29 12:39:51;;;;;;;21.03;6.03;;;9.20;1.00;;;;;;5008942;28;20414;-64
2022/11/29 12:42:48;;;;;;;7.80;5.27;;;9.10;1.00;;;;;;4988985;28;20539;-64
2022/11/29 12:45:39;;;;;;;6.27;4.83;;;9.10;1.00;;;;;;4990401;28;20392;-65
2022/11/29 12:48:33;;;;;;;13.30;6.30;;;9.20;1.00;;;;;;4989771;28;20444;-64
2022/11/29 12:51:08;;;;;;;6.20;5.20;;;9.20;1.00;;;;;;4989363;28;20761;-64
2022/11/29 12:53:55;;;;;;;9.27;5.53;;;9.20;1.00;;;;;;4989144;28;20411;-64
2022/11/29 12:56:42;;;;;;;14.33;5.67;;;9.30;1.00;;;;;;5001012;28;20426;-64
2022/11/29 12:59:08;;;;;;;9.73;5.00;;;9.20;1.00;;;;;;5008618;28;20396;-64
2022/11/29 13:01:58;;;;;;;44.40;9.70;;;9.20;1.00;;;;;;5007167;28;20470;-64
2022/11/29 13:04:26;;;;;;;25.90;7.87;;;9.20;1.00;;;;;;5008994;28;20459;-65
2022/11/29 13:07:20;;;;;;;20.77;6.27;;;9.30;1.00;;;;;;5009958;28;20431;-65
2022/11/29 13:09:57;;;;;;;7.73;5.00;;;9.30;1.00;;;;;;5008560;28;20815;-65
2022/11/29 13:12:39;;;;;;;8.77;6.70;;;9.40;1.00;;;;;;5008959;28;20410;-65
2022/11/29 13:15:20;;;;;;;6.20;4.63;;;9.40;1.00;;;;;;5009488;28;21113;-64
2022/11/29 13:18:17;;;;;;;6.90;5.03;;;9.40;1.00;;;;;;5009540;28;20420;-64
2022/11/29 13:20:46;;;;;;;9.70;5.20;;;9.40;1.00;;;;;;5009447;28;20451;-65
2022/11/29 13:23:28;;;;;;;7.30;4.07;;;9.30;1.00;;;;;;5009201;28;20418;-65
2022/11/29 13:25:57;;;;;;;15.20;9.97;;;9.20;1.00;;;;;;5010262;28;20427;-65
2022/11/29 13:28:27;;;;;;;7.90;5.40;;;9.20;1.00;;;;;;5009633;28;20442;-65
2022/11/29 13:31:00;;;;;;;8.90;4.70;;;9.20;1.00;;;;;;5008607;28;20870;-64
2022/11/29 13:33:30;;;;;;;11.10;4.90;;;9.20;1.00;;;;;;5009143;28;20417;-64
2022/11/29 13:36:34;;;;;;;16.23;5.80;;;9.20;1.00;;;;;;5006228;28;20442;-64
2022/11/29 13:39:18;;;;;;;11.60;6.00;;;9.20;1.00;;;;;;5007361;28;20422;-65
2022/11/29 13:42:19;;;;;;;20.53;6.43;;;9.30;1.00;;;;;;5006494;28;20430;-65
2022/11/29 13:45:00;;;;;;;9.73;5.90;;;9.30;1.00;;;;;;4997711;28;20422;-61